sensor_id;sensor_type;location;lat;lon;timestamp;pressure;altitude;pressure_sealevel;temperature;humidity
63607;BME280;51327;52.466;-1.938;2022-12-29T00:00:11;97253.31;;;6.05;100.00
63607;BME280;51327;52.466;-1.938;2022-12-29T00:02:37;97248.84;;;6.06;100.00
63607;BME280;51327;52.466;-1.938;2022-12-29T00:05:02;97246.34;;;6.04;100.00
63607;BME280;51327;52.466;-1.938;2022-12-29T00:07:30;97252.47;;;6.05;100.00
63607;BME280;51327;52.466;-1.938;2022-12-29T00:09:56;97260.31;;;6.06;100.00
63607;BME280;51327;52.466;-1.938;2022-12-29T00:12:21;97257.66;;;6.06;100.00
63607;BME280;51327;52.466;-1.938;2022-12-29T00:14:49;97263.91;;;6.05;100.00
63607;BME280;51327;52.466;-1.938;2022-12-29T00:17:35;97268.50;;;6.03;100.00
63607;BME280;51327;52.466;-1.938;2022-12-29T00:20:03;97266.00;;;6.02;100.00
63607;BME280;51327;52.466;-1.938;2022-12-29T00:22:47;97251.91;;;6.01;100.00
63607;BME280;51327;52.466;-1.938;2022-12-29T00:25:37;97244.09;;;6.00;100.00
63607;BME280;51327;52.466;-1.938;2022-12-29T00:28:21;97235.69;;;5.95;100.00
63607;BME280;51327;52.466;-1.938;2022-12-29T00:31:10;97244.28;;;5.87;100.00
63607;BME280;51327;52.466;-1.938;2022-12-29T00:33:57;97228.47;;;5.76;100.00
63607;BME280;51327;52.466;-1.938;2022-12-29T00:36:44;97232.34;;;5.72;100.00
63607;BME280;51327;52.466;-1.938;2022-12-29T00:39:18;97228.06;;;5.71;100.00
63607;BME280;51327;52.466;-1.938;2022-12-29T00:42:06;97226.50;;;5.68;100.00
63607;BME280;51327;52.466;-1.938;2022-12-29T00:45:14;97222.03;;;5.69;100.00
63607;BME280;51327;52.466;-1.938;2022-12-29T00:47:41;97222.03;;;5.69;100.00
63607;BME280;51327;52.466;-1.938;2022-12-29T00:50:09;97221.91;;;5.70;100.00
63607;BME280;51327;52.466;-1.938;2022-12-29T00:52:36;97224.41;;;5.72;100.00
63607;BME280;51327;52.466;-1.938;2022-12-29T00:55:01;97226.94;;;5.73;100.00
63607;BME280;51327;52.466;-1.938;2022-12-29T00:57:38;97225.97;;;5.74;100.00
63607;BME280;51327;52.466;-1.938;2022-12-29T01:00:11;97226.66;;;5.76;100.00
63607;BME280;51327;52.466;-1.938;2022-12-29T01:02:43;97229.19;;;5.78;100.00
63607;BME280;51327;52.466;-1.938;2022-12-29T01:05:09;97214.97;;;5.79;100.00
63607;BME280;51327;52.466;-1.938;2022-12-29T01:10:16;97208.72;;;5.80;100.00
63607;BME280;51327;52.466;-1.938;2022-12-29T01:12:45;97220.25;;;5.79;100.00
63607;BME280;51327;52.466;-1.938;2022-12-29T01:15:13;97214.00;;;5.80;100.00
63607;BME280;51327;52.466;-1.938;2022-12-29T01:36:46;97194.09;;;5.85;100.00
63607;BME280;51327;52.466;-1.938;2022-12-29T01:50:36;97200.69;;;5.91;100.00
63607;BME280;51327;52.466;-1.938;2022-12-29T02:10:10;97209.97;;;5.85;100.00
63607;BME280;51327;52.466;-1.938;2022-12-29T02:12:38;97218.06;;;5.84;100.00
63607;BME280;51327;52.466;-1.938;2022-12-29T02:32:38;97203.84;;;5.85;100.00
63607;BME280;51327;52.466;-1.938;2022-12-29T02:39:05;97200.25;;;5.86;100.00
63607;BME280;51327;52.466;-1.938;2022-12-29T02:50:16;97197.72;;;5.84;100.00
63607;BME280;51327;52.466;-1.938;2022-12-29T02:55:33;97207.31;;;5.85;100.00
63607;BME280;51327;52.466;-1.938;2022-12-29T03:26:49;97331.28;;;5.29;100.00
63607;BME280;51327;52.466;-1.938;2022-12-29T03:32:55;97366.72;;;5.05;100.00
63607;BME280;51327;52.466;-1.938;2022-12-29T10:02:31;98090.97;;;3.96;100.00
63607;BME280;51327;52.466;-1.938;2022-12-29T10:05:01;98082.31;;;3.94;100.00
63607;BME280;51327;52.466;-1.938;2022-12-29T10:07:30;98088.56;;;3.93;100.00
63607;BME280;51327;52.466;-1.938;2022-12-29T10:10:01;98089.47;;;3.92;100.00
63607;BME280;51327;52.466;-1.938;2022-12-29T10:15:14;98095.59;;;3.92;100.00
63607;BME280;51327;52.466;-1.938;2022-12-29T10:20:33;98104.13;;;4.10;100.00
63607;BME280;51327;52.466;-1.938;2022-12-29T10:25:37;98103.34;;;4.35;100.00
63607;BME280;51327;52.466;-1.938;2022-12-29T10:28:31;98112.03;;;4.37;100.00
63607;BME280;51327;52.466;-1.938;2022-12-29T10:30:53;98114.59;;;4.39;100.00
63607;BME280;51327;52.466;-1.938;2022-12-29T10:33:20;98107.41;;;4.41;100.00
63607;BME280;51327;52.466;-1.938;2022-12-29T10:35:48;98114.06;;;4.47;100.00
63607;BME280;51327;52.466;-1.938;2022-12-29T10:38:25;98116.28;;;4.53;100.00
63607;BME280;51327;52.466;-1.938;2022-12-29T10:43:38;98131.22;;;4.67;100.00
63607;BME280;51327;52.466;-1.938;2022-12-29T10:46:12;98126.47;;;4.72;100.00
63607;BME280;51327;52.466;-1.938;2022-12-29T10:48:39;98132.41;;;4.75;100.00
63607;BME280;51327;52.466;-1.938;2022-12-29T10:51:05;98130.28;;;4.80;100.00
63607;BME280;51327;52.466;-1.938;2022-12-29T10:53:41;98129.13;;;4.85;100.00
63607;BME280;51327;52.466;-1.938;2022-12-29T10:56:20;98150.81;;;4.90;100.00
63607;BME280;51327;52.466;-1.938;2022-12-29T10:58:49;98156.53;;;4.96;100.00
63607;BME280;51327;52.466;-1.938;2022-12-29T11:01:15;98151.78;;;5.01;100.00
63607;BME280;51327;52.466;-1.938;2022-12-29T11:03:50;98152.34;;;5.07;100.00
63607;BME280;51327;52.466;-1.938;2022-12-29T11:06:24;98150.31;;;5.10;100.00
63607;BME280;51327;52.466;-1.938;2022-12-29T11:08:53;98146.50;;;5.14;100.00
63607;BME280;51327;52.466;-1.938;2022-12-29T11:11:23;98156.88;;;5.17;100.00
63607;BME280;51327;52.466;-1.938;2022-12-29T11:13:57;98156.44;;;5.23;100.00
63607;BME280;51327;52.466;-1.938;2022-12-29T11:16:27;98150.94;;;5.27;100.00
63607;BME280;51327;52.466;-1.938;2022-12-29T11:18:58;98133.16;;;5.29;100.00
63607;BME280;51327;52.466;-1.938;2022-12-29T11:23:57;98126.41;;;5.25;100.00
63607;BME280;51327;52.466;-1.938;2022-12-29T11:26:25;98138.66;;;5.26;100.00
63607;BME280;51327;52.466;-1.938;2022-12-29T11:31:45;98147.78;;;5.21;100.00
63607;BME280;51327;52.466;-1.938;2022-12-29T11:34:18;98137.19;;;5.21;100.00
63607;BME280;51327;52.466;-1.938;2022-12-29T11:36:47;98154.88;;;5.21;100.00
63607;BME280;51327;52.466;-1.938;2022-12-29T11:42:01;98153.50;;;5.28;100.00
63607;BME280;51327;52.466;-1.938;2022-12-29T11:44:27;98147.03;;;5.32;100.00
63607;BME280;51327;52.466;-1.938;2022-12-29T11:46:55;98147.44;;;5.39;100.00
63607;BME280;51327;52.466;-1.938;2022-12-29T11:49:23;98149.97;;;5.40;100.00
63607;BME280;51327;52.466;-1.938;2022-12-29T11:51:50;98156.13;;;5.41;100.00
63607;BME280;51327;52.466;-1.938;2022-12-29T11:54:19;98147.31;;;5.40;100.00
63607;BME280;51327;52.466;-1.938;2022-12-29T11:56:49;98156.00;;;5.42;100.00
63607;BME280;51327;52.466;-1.938;2022-12-29T12:04:44;98162.19;;;5.43;100.00
63607;BME280;51327;52.466;-1.938;2022-12-29T12:07:17;98155.81;;;5.46;100.00
63607;BME280;51327;52.466;-1.938;2022-12-29T12:09:58;98154.75;;;5.48;100.00
63607;BME280;51327;52.466;-1.938;2022-12-29T12:12:44;98164.03;;;5.54;100.00
63607;BME280;51327;52.466;-1.938;2022-12-29T12:15:13;98153.66;;;5.63;100.00
63607;BME280;51327;52.466;-1.938;2022-12-29T12:17:54;98152.03;;;5.74;100.00
63607;BME280;51327;52.466;-1.938;2022-12-29T12:25:56;98163.03;;;5.93;100.00
63607;BME280;51327;52.466;-1.938;2022-12-29T12:28:32;98154.25;;;5.93;100.00
63607;BME280;51327;52.466;-1.938;2022-12-29T12:31:00;98161.88;;;5.97;100.00
63607;BME280;51327;52.466;-1.938;2022-12-29T12:33:36;98159.00;;;6.00;100.00
63607;BME280;51327;52.466;-1.938;2022-12-29T12:36:18;98154.22;;;6.05;100.00
63607;BME280;51327;52.466;-1.938;2022-12-29T12:39:04;98162.16;;;6.05;100.00
63607;BME280;51327;52.466;-1.938;2022-12-29T12:44:28;98155.53;;;6.00;100.00
63607;BME280;51327;52.466;-1.938;2022-12-29T12:57:54;98158.09;;;6.13;100.00
63607;BME280;51327;52.466;-1.938;2022-12-29T13:00:25;98160.66;;;6.14;100.00
63607;BME280;51327;52.466;-1.938;2022-12-29T13:02:56;98156.94;;;6.17;100.00
63607;BME280;51327;52.466;-1.938;2022-12-29T13:10:48;98151.03;;;6.13;100.00
63607;BME280;51327;52.466;-1.938;2022-12-29T13:13:30;98155.69;;;6.10;100.00
63607;BME280;51327;52.466;-1.938;2022-12-29T13:23:42;98159.34;;;6.20;100.00
63607;BME280;51327;52.466;-1.938;2022-12-29T13:26:20;98177.28;;;6.16;100.00
63607;BME280;51327;52.466;-1.938;2022-12-29T13:28:55;98170.41;;;6.14;99.42
63607;BME280;51327;52.466;-1.938;2022-12-29T13:31:39;98174.25;;;6.10;99.21
63607;BME280;51327;52.466;-1.938;2022-12-29T13:34:17;98176.72;;;6.00;99.05
63607;BME280;51327;52.466;-1.938;2022-12-29T13:36:51;98190.69;;;5.89;99.34
63607;BME280;51327;52.466;-1.938;2022-12-29T13:39:33;98188.69;;;5.80;99.24
63607;BME280;51327;52.466;-1.938;2022-12-29T13:42:01;98200.03;;;5.69;99.25
63607;BME280;51327;52.466;-1.938;2022-12-29T13:44:31;98211.38;;;5.58;99.92
63607;BME280;51327;52.466;-1.938;2022-12-29T13:46:59;98223.50;;;5.50;100.00
63607;BME280;51327;52.466;-1.938;2022-12-29T13:49:26;98213.41;;;5.42;100.00
63607;BME280;51327;52.466;-1.938;2022-12-29T13:51:56;98224.63;;;5.33;100.00
63607;BME280;51327;52.466;-1.938;2022-12-29T13:54:25;98228.97;;;5.21;100.00
63607;BME280;51327;52.466;-1.938;2022-12-29T13:56:55;98244.72;;;5.10;100.00
63607;BME280;51327;52.466;-1.938;2022-12-29T14:02:03;98234.84;;;4.99;100.00
63607;BME280;51327;52.466;-1.938;2022-12-29T14:04:35;98217.78;;;4.90;100.00
63607;BME280;51327;52.466;-1.938;2022-12-29T14:07:22;98224.56;;;4.81;100.00
63607;BME280;51327;52.466;-1.938;2022-12-29T14:09:50;98224.13;;;4.75;100.00
63607;BME280;51327;52.466;-1.938;2022-12-29T14:14:50;98237.00;;;4.67;100.00
63607;BME280;51327;52.466;-1.938;2022-12-29T14:17:18;98240.59;;;4.66;100.00
63607;BME280;51327;52.466;-1.938;2022-12-29T14:19:47;98237.09;;;4.65;100.00
63607;BME280;51327;52.466;-1.938;2022-12-29T14:22:22;98238.88;;;4.65;100.00
63607;BME280;51327;52.466;-1.938;2022-12-29T14:24:50;98232.75;;;4.64;100.00
63607;BME280;51327;52.466;-1.938;2022-12-29T14:29:47;98254.84;;;4.63;100.00
63607;BME280;51327;52.466;-1.938;2022-12-29T14:34:57;98253.16;;;4.62;100.00
63607;BME280;51327;52.466;-1.938;2022-12-29T14:37:41;98263.94;;;4.59;100.00
63607;BME280;51327;52.466;-1.938;2022-12-29T14:40:19;98261.47;;;4.56;100.00
63607;BME280;51327;52.466;-1.938;2022-12-29T14:42:50;98263.50;;;4.52;100.00
63607;BME280;51327;52.466;-1.938;2022-12-29T14:47:47;98282.28;;;4.48;100.00
63607;BME280;51327;52.466;-1.938;2022-12-29T14:50:29;98283.22;;;4.47;100.00
63607;BME280;51327;52.466;-1.938;2022-12-29T14:53:02;98293.91;;;4.45;100.00
63607;BME280;51327;52.466;-1.938;2022-12-29T14:55:40;98290.53;;;4.43;100.00
63607;BME280;51327;52.466;-1.938;2022-12-29T14:58:15;98291.56;;;4.41;100.00
63607;BME280;51327;52.466;-1.938;2022-12-29T15:00:44;98298.84;;;4.37;100.00
63607;BME280;51327;52.466;-1.938;2022-12-29T15:05:43;98297.69;;;4.27;100.00
63607;BME280;51327;52.466;-1.938;2022-12-29T15:08:12;98304.16;;;4.23;100.00
63607;BME280;51327;52.466;-1.938;2022-12-29T15:10:45;98295.75;;;4.16;100.00
63607;BME280;51327;52.466;-1.938;2022-12-29T15:13:15;98303.97;;;4.11;100.00
63607;BME280;51327;52.466;-1.938;2022-12-29T15:15:43;98298.97;;;4.07;100.00
63607;BME280;51327;52.466;-1.938;2022-12-29T15:20:45;98318.03;;;3.97;100.00
63607;BME280;51327;52.466;-1.938;2022-12-29T15:23:13;98315.56;;;3.94;100.00
63607;BME280;51327;52.466;-1.938;2022-12-29T15:25:54;98320.28;;;3.89;100.00
63607;BME280;51327;52.466;-1.938;2022-12-29T15:28:20;98329.13;;;3.88;100.00
63607;BME280;51327;52.466;-1.938;2022-12-29T15:30:52;98346.03;;;3.86;100.00
63607;BME280;51327;52.466;-1.938;2022-12-29T15:33:21;98351.50;;;3.83;100.00
63607;BME280;51327;52.466;-1.938;2022-12-29T15:35:51;98359.50;;;3.81;100.00
63607;BME280;51327;52.466;-1.938;2022-12-29T15:38:27;98355.19;;;3.80;100.00
63607;BME280;51327;52.466;-1.938;2022-12-29T15:41:05;98359.69;;;3.78;100.00
63607;BME280;51327;52.466;-1.938;2022-12-29T15:43:37;98373.09;;;3.75;100.00
63607;BME280;51327;52.466;-1.938;2022-12-29T15:46:08;98378.47;;;3.73;100.00
63607;BME280;51327;52.466;-1.938;2022-12-29T15:48:38;98378.38;;;3.75;100.00
63607;BME280;51327;52.466;-1.938;2022-12-29T15:51:17;98388.19;;;3.73;100.00
63607;BME280;51327;52.466;-1.938;2022-12-29T15:53:46;98389.28;;;3.69;100.00
63607;BME280;51327;52.466;-1.938;2022-12-29T15:56:14;98389.56;;;3.64;100.00
63607;BME280;51327;52.466;-1.938;2022-12-29T15:58:46;98386.34;;;3.59;100.00
63607;BME280;51327;52.466;-1.938;2022-12-29T16:01:22;98397.75;;;3.60;100.00
63607;BME280;51327;52.466;-1.938;2022-12-29T16:03:51;98390.75;;;3.59;100.00
63607;BME280;51327;52.466;-1.938;2022-12-29T16:06:27;98396.03;;;3.59;100.00
63607;BME280;51327;52.466;-1.938;2022-12-29T16:09:29;98405.69;;;3.60;100.00
63607;BME280;51327;52.466;-1.938;2022-12-29T16:11:51;98407.34;;;3.61;100.00
63607;BME280;51327;52.466;-1.938;2022-12-29T16:14:21;98404.91;;;3.58;100.00
63607;BME280;51327;52.466;-1.938;2022-12-29T16:16:52;98408.66;;;3.53;100.00
63607;BME280;51327;52.466;-1.938;2022-12-29T16:19:38;98415.06;;;3.49;100.00
63607;BME280;51327;52.466;-1.938;2022-12-29T16:27:48;98438.34;;;3.27;100.00
63607;BME280;51327;52.466;-1.938;2022-12-29T16:32:52;98450.03;;;3.23;100.00
63607;BME280;51327;52.466;-1.938;2022-12-29T16:35:24;98451.19;;;3.17;100.00
63607;BME280;51327;52.466;-1.938;2022-12-29T16:41:13;98451.66;;;3.09;100.00
63607;BME280;51327;52.466;-1.938;2022-12-29T16:43:36;98451.78;;;3.06;100.00
63607;BME280;51327;52.466;-1.938;2022-12-29T16:46:24;98445.75;;;3.04;100.00
63607;BME280;51327;52.466;-1.938;2022-12-29T16:48:52;98442.63;;;2.98;100.00
63607;BME280;51327;52.466;-1.938;2022-12-29T16:51:34;98455.31;;;2.91;100.00
63607;BME280;51327;52.466;-1.938;2022-12-29T16:54:02;98451.97;;;2.87;100.00
63607;BME280;51327;52.466;-1.938;2022-12-29T16:56:32;98448.81;;;2.81;100.00
63607;BME280;51327;52.466;-1.938;2022-12-29T16:59:06;98450.03;;;2.75;100.00
63607;BME280;51327;52.466;-1.938;2022-12-29T17:01:37;98447.78;;;2.67;100.00
63607;BME280;51327;52.466;-1.938;2022-12-29T17:04:06;98456.72;;;2.65;100.00
63607;BME280;51327;52.466;-1.938;2022-12-29T17:06:33;98444.72;;;2.59;100.00
63607;BME280;51327;52.466;-1.938;2022-12-29T17:08:58;98456.44;;;2.54;100.00
63607;BME280;51327;52.466;-1.938;2022-12-29T17:11:27;98460.16;;;2.49;100.00
63607;BME280;51327;52.466;-1.938;2022-12-29T17:16:46;98461.19;;;2.47;100.00
63607;BME280;51327;52.466;-1.938;2022-12-29T17:19:19;98471.91;;;2.44;100.00
63607;BME280;51327;52.466;-1.938;2022-12-29T17:21:47;98482.59;;;2.41;100.00
63607;BME280;51327;52.466;-1.938;2022-12-29T17:24:16;98467.78;;;2.38;100.00
63607;BME280;51327;52.466;-1.938;2022-12-29T17:26:42;98472.28;;;2.36;100.00
63607;BME280;51327;52.466;-1.938;2022-12-29T17:29:10;98482.81;;;2.36;100.00
63607;BME280;51327;52.466;-1.938;2022-12-29T17:31:40;98487.47;;;2.31;100.00
63607;BME280;51327;52.466;-1.938;2022-12-29T17:34:06;98492.91;;;2.28;100.00
63607;BME280;51327;52.466;-1.938;2022-12-29T17:36:32;98503.53;;;2.26;100.00
63607;BME280;51327;52.466;-1.938;2022-12-29T17:38:59;98503.69;;;2.23;100.00
63607;BME280;51327;52.466;-1.938;2022-12-29T17:41:25;98490.75;;;2.19;100.00
63607;BME280;51327;52.466;-1.938;2022-12-29T17:43:50;98493.72;;;2.13;100.00
63607;BME280;51327;52.466;-1.938;2022-12-29T17:46:18;98498.19;;;2.11;100.00
63607;BME280;51327;52.466;-1.938;2022-12-29T17:48:46;98509.56;;;2.11;100.00
63607;BME280;51327;52.466;-1.938;2022-12-29T17:51:12;98495.66;;;2.09;100.00
63607;BME280;51327;52.466;-1.938;2022-12-29T17:53:37;98501.00;;;2.07;100.00
63607;BME280;51327;52.466;-1.938;2022-12-29T17:56:05;98493.09;;;2.07;100.00
63607;BME280;51327;52.466;-1.938;2022-12-29T17:58:32;98501.84;;;2.08;100.00
63607;BME280;51327;52.466;-1.938;2022-12-29T18:01:00;98503.63;;;2.07;100.00
63607;BME280;51327;52.466;-1.938;2022-12-29T18:03:29;98506.44;;;2.04;100.00
63607;BME280;51327;52.466;-1.938;2022-12-29T18:05:57;98509.91;;;2.05;100.00
63607;BME280;51327;52.466;-1.938;2022-12-29T18:08:25;98516.09;;;2.04;100.00
63607;BME280;51327;52.466;-1.938;2022-12-29T18:10:55;98510.03;;;2.02;100.00
63607;BME280;51327;52.466;-1.938;2022-12-29T18:13:24;98517.94;;;2.02;100.00
63607;BME280;51327;52.466;-1.938;2022-12-29T18:15:52;98520.56;;;2.02;100.00
63607;BME280;51327;52.466;-1.938;2022-12-29T18:18:21;98526.00;;;1.99;100.00
63607;BME280;51327;52.466;-1.938;2022-12-29T18:20:50;98530.44;;;1.98;100.00
63607;BME280;51327;52.466;-1.938;2022-12-29T18:23:25;98540.19;;;1.96;100.00
63607;BME280;51327;52.466;-1.938;2022-12-29T18:25:52;98534.91;;;1.96;100.00
63607;BME280;51327;52.466;-1.938;2022-12-29T18:28:20;98535.94;;;1.94;100.00
63607;BME280;51327;52.466;-1.938;2022-12-29T18:30:46;98533.44;;;1.91;100.00
63607;BME280;51327;52.466;-1.938;2022-12-29T18:33:15;98542.25;;;1.90;100.00
63607;BME280;51327;52.466;-1.938;2022-12-29T18:35:51;98539.69;;;1.88;100.00
63607;BME280;51327;52.466;-1.938;2022-12-29T18:38:24;98551.16;;;1.87;100.00
63607;BME280;51327;52.466;-1.938;2022-12-29T18:41:01;98556.56;;;1.84;100.00
63607;BME280;51327;52.466;-1.938;2022-12-29T18:43:29;98560.13;;;1.83;100.00
63607;BME280;51327;52.466;-1.938;2022-12-29T18:46:51;98561.16;;;1.80;100.00
63607;BME280;51327;52.466;-1.938;2022-12-29T18:49:20;98563.94;;;1.77;100.00
63607;BME280;51327;52.466;-1.938;2022-12-29T18:52:21;98572.81;;;1.75;100.00
63607;BME280;51327;52.466;-1.938;2022-12-29T18:55:01;98579.84;;;1.74;100.00
63607;BME280;51327;52.466;-1.938;2022-12-29T18:57:31;98576.31;;;1.75;100.00
63607;BME280;51327;52.466;-1.938;2022-12-29T19:02:58;98588.13;;;1.66;100.00
63607;BME280;51327;52.466;-1.938;2022-12-29T19:08:21;98597.03;;;1.64;100.00
63607;BME280;51327;52.466;-1.938;2022-12-29T19:11:12;98597.94;;;1.63;100.00
63607;BME280;51327;52.466;-1.938;2022-12-29T19:22:06;98601.84;;;1.54;100.00
63607;BME280;51327;52.466;-1.938;2022-12-29T19:38:30;98618.88;;;1.47;100.00
63607;BME280;51327;52.466;-1.938;2022-12-29T19:41:45;98628.59;;;1.45;100.00
63607;BME280;51327;52.466;-1.938;2022-12-29T19:55:06;98588.22;;;1.27;100.00
63607;BME280;51327;52.466;-1.938;2022-12-29T20:06:09;98646.16;;;1.44;100.00
63607;BME280;51327;52.466;-1.938;2022-12-29T20:09:03;98644.16;;;1.50;100.00
63607;BME280;51327;52.466;-1.938;2022-12-29T20:12:26;98644.09;;;1.51;100.00
63607;BME280;51327;52.466;-1.938;2022-12-29T21:47:15;98590.13;;;1.42;100.00
63607;BME280;51327;52.466;-1.938;2022-12-29T21:52:18;98595.41;;;1.42;100.00
63607;BME280;51327;52.466;-1.938;2022-12-29T21:54:48;98588.34;;;1.43;100.00
63607;BME280;51327;52.466;-1.938;2022-12-29T21:58:00;98586.50;;;1.45;100.00
63607;BME280;51327;52.466;-1.938;2022-12-29T22:00:46;98582.75;;;1.51;100.00
63607;BME280;51327;52.466;-1.938;2022-12-29T22:03:30;98580.91;;;1.53;100.00
63607;BME280;51327;52.466;-1.938;2022-12-29T22:06:17;98588.00;;;1.51;100.00
63607;BME280;51327;52.466;-1.938;2022-12-29T22:09:01;98609.91;;;1.51;100.00
63607;BME280;51327;52.466;-1.938;2022-12-29T22:12:20;98602.66;;;1.56;100.00
63607;BME280;51327;52.466;-1.938;2022-12-29T22:15:04;98588.63;;;1.56;100.00
63607;BME280;51327;52.466;-1.938;2022-12-29T22:17:32;98597.59;;;1.52;100.00
63607;BME280;51327;52.466;-1.938;2022-12-29T22:20:00;98588.78;;;1.53;100.00
63607;BME280;51327;52.466;-1.938;2022-12-29T22:22:27;98597.47;;;1.55;100.00
63607;BME280;51327;52.466;-1.938;2022-12-29T22:24:52;98591.13;;;1.59;100.00
63607;BME280;51327;52.466;-1.938;2022-12-29T22:27:20;98593.75;;;1.59;100.00
63607;BME280;51327;52.466;-1.938;2022-12-29T22:29:46;98590.16;;;1.61;100.00
63607;BME280;51327;52.466;-1.938;2022-12-29T22:32:11;98583.72;;;1.67;100.00
63607;BME280;51327;52.466;-1.938;2022-12-29T22:34:39;98587.91;;;1.71;100.00
63607;BME280;51327;52.466;-1.938;2022-12-29T22:37:06;98592.16;;;1.74;100.00
63607;BME280;51327;52.466;-1.938;2022-12-29T22:39:32;98580.56;;;1.78;100.00
63607;BME280;51327;52.466;-1.938;2022-12-29T22:42:00;98578.72;;;1.80;100.00
63607;BME280;51327;52.466;-1.938;2022-12-29T22:44:25;98579.41;;;1.83;100.00
63607;BME280;51327;52.466;-1.938;2022-12-29T22:46:51;98587.19;;;1.86;100.00
63607;BME280;51327;52.466;-1.938;2022-12-29T22:49:19;98593.75;;;1.95;100.00
63607;BME280;51327;52.466;-1.938;2022-12-29T22:51:47;98585.63;;;2.00;100.00
63607;BME280;51327;52.466;-1.938;2022-12-29T22:54:13;98583.78;;;2.02;100.00
63607;BME280;51327;52.466;-1.938;2022-12-29T22:56:38;98574.72;;;2.07;100.00
63607;BME280;51327;52.466;-1.938;2022-12-29T22:59:12;98554.28;;;2.13;100.00
63607;BME280;51327;52.466;-1.938;2022-12-29T23:01:40;98555.66;;;2.20;100.00
63607;BME280;51327;52.466;-1.938;2022-12-29T23:04:06;98552.72;;;2.26;100.00
63607;BME280;51327;52.466;-1.938;2022-12-29T23:06:32;98549.94;;;2.29;100.00
63607;BME280;51327;52.466;-1.938;2022-12-29T23:09:00;98545.38;;;2.33;100.00
63607;BME280;51327;52.466;-1.938;2022-12-29T23:11:28;98553.03;;;2.37;100.00
63607;BME280;51327;52.466;-1.938;2022-12-29T23:13:53;98545.84;;;2.41;100.00
63607;BME280;51327;52.466;-1.938;2022-12-29T23:16:19;98552.56;;;2.46;100.00
63607;BME280;51327;52.466;-1.938;2022-12-29T23:18:47;98534.81;;;2.50;100.00
63607;BME280;51327;52.466;-1.938;2022-12-29T23:21:16;98532.84;;;2.54;100.00
63607;BME280;51327;52.466;-1.938;2022-12-29T23:23:45;98536.25;;;2.56;100.00
63607;BME280;51327;52.466;-1.938;2022-12-29T23:26:35;98526.44;;;2.59;100.00
63607;BME280;51327;52.466;-1.938;2022-12-29T23:29:05;98536.88;;;2.61;100.00
63607;BME280;51327;52.466;-1.938;2022-12-29T23:31:33;98531.53;;;2.62;100.00
63607;BME280;51327;52.466;-1.938;2022-12-29T23:34:01;98527.94;;;2.63;100.00
63607;BME280;51327;52.466;-1.938;2022-12-29T23:36:29;98534.16;;;2.62;100.00
63607;BME280;51327;52.466;-1.938;2022-12-29T23:38:55;98525.25;;;2.65;100.00
63607;BME280;51327;52.466;-1.938;2022-12-29T23:41:21;98529.59;;;2.66;100.00
63607;BME280;51327;52.466;-1.938;2022-12-29T23:43:49;98526.84;;;2.67;100.00
63607;BME280;51327;52.466;-1.938;2022-12-29T23:46:17;98522.34;;;2.69;100.00
63607;BME280;51327;52.466;-1.938;2022-12-29T23:48:46;98515.28;;;2.70;100.00
63607;BME280;51327;52.466;-1.938;2022-12-29T23:51:13;98511.81;;;2.69;100.00
63607;BME280;51327;52.466;-1.938;2022-12-29T23:53:40;98510.13;;;2.68;100.00
63607;BME280;51327;52.466;-1.938;2022-12-29T23:56:07;98514.44;;;2.69;100.00
63607;BME280;51327;52.466;-1.938;2022-12-29T23:58:35;98506.53;;;2.69;100.00
